Share

Oates, MO

RAWS SINKIN MO US (MSINM7) Elev 1333 ft | 37.50 °N, 91.26 °W | Change Station

Current weather conditions updated 44 minutes ago

Clear
Clear
68 °F
Feels Like 68 °F
N
3
Wind Variable Wind from NNE
Gusts 6.0 mph
Sunrise 6:25 AM
Sunset 7:42 PM
Moon Waning Gibbous

Tomorrow is forecast to be nearly the same temperature as today.

Pressure 30.22 in
Visibility 10.0 miles
Clouds Clear
Dew Point 35 °F
Humidity 30%
Rainfall 0.00 in
Snow Depth Not available.
UV 0 out of 16
Pollen 9.50 out of 12
Air Quality Not available.
Flu Activity Sporadic
METAR KFAM 190035Z AUTO 07006KT 10SM CLR 16/06 A3022 RMK AO1

More Conditions Fewer Conditions

Pressure 30.22 in
Visibility 10.0 miles
Clouds Clear
Dew Point 35 °F
Humidity 30%
Rainfall 0.00 in
Snow Depth Not available.
UV 0 out of 16
Pollen 9.50 out of 12
Air Quality Not available.
Flu Activity Sporadic
METAR KFAM 190035Z AUTO 07006KT 10SM CLR 16/06 A3022 RMK AO1

More Conditions Fewer Conditions

10-Day Weather Forecast

Almanac

Astronomy

Apr. 18, 2014 Rise Set
Actual Time 6:25 AM CDT 7:42 PM CDT
Civil Twilight 5:57 AM CDT 8:09 PM CDT
Nautical Twilight 5:25 AM CDT 8:42 PM CDT
Astronomical Twilight 4:51 AM CDT 9:16 PM CDT
Moon 11:25 PM CDT (4/18) 8:49 AM CDT (4/18)
Length of Visible Light 14h 11m
Length of Day
13h 17m
Tomorrow will be 2m 15s longer.
Waning Gibbous, 84% of the Moon is Illuminated
Today
Waning Gibbous
Apr 22
Last Quarter
Apr 29
New
May 6
First Quarter
May 14
Full

Today's Extremes

State Highs State Lows

Community

  • Cloudy spring view
    Cloudy spring view
  • Old barn
    Old barn
  • What's for Lunch?
    What's for Lunch?
  • SUNRISE THROUGH THE TREES.
    SUNRISE THROUGH THE TREES.
  • Dog Wood Blossoms
    Dog Wood Blossoms

WunderPhotos

Upload Photos

1,702,549 photos uploaded!

WunderBlogs® & News

Nearby

Snow Depth

Station Depth Elevation
No new snow has been reported.

Coastal Water Temperatures

Place Temperature
No Stations Reporting

Earthquake Activity

City Distance Mag. Time & Date
No recent earthquake activity has been reported nearby.
Minimum magnitude displayed is 2.5.

Nearby Weather Stations

Station Location Temp. Dew Point Humidity Wind Precip. Elev Updated Type
RAWS COUNCIL BLUFF MO, Belleview, MO 66 °F 38 °F 35% ENE  at  4 mph 0.00 in / hr 1321 ft 6:54 PM CDT MADIS
RAWS SINKIN MO, Bunker, MO 68 °F 35 °F 30% NNE  at  3 mph 0.00 in / hr 1333 ft 7:10 PM CDT MADIS

Show More Stations Show Fewer Stations

What do you think?

We're not finished. Please let us know what you like, what you don't like, and what you are still missing.